Time;durP1;ratioP1;P1;durP2;ratioP2;P2;SDS_P1;SDS_P2;PMS_P1;PMS_P2;Temp;Humidity;BMP_temperature;BMP_pressure;BME280_temperature;BME280_humidity;BME280_pressure;Samples;Min_cycle;Max_cycle;Signal;HPM_P1;HPM_P2
2021/06/23 00:00:28;;;;;;;2.80;2.60;;;;;;;24.83;53.28;96669.41;5052615;28;20465;-65
2021/06/23 00:02:54;;;;;;;5.20;2.40;;;;;;;24.88;53.20;96672.16;5041355;28;20484;-66
2021/06/23 00:05:20;;;;;;;4.53;2.20;;;;;;;25.00;53.24;96672.78;5051346;28;20424;-65
2021/06/23 00:07:45;;;;;;;4.43;2.60;;;;;;;25.16;52.45;96664.81;5049117;28;20418;-63
2021/06/23 00:10:13;;;;;;;3.23;2.57;;;;;;;25.17;52.72;96663.75;5050290;28;20203;-64
2021/06/23 00:12:39;;;;;;;4.10;2.90;;;;;;;25.06;53.14;96660.19;5050806;28;20182;-65
2021/06/23 00:15:07;;;;;;;2.80;2.60;;;;;;;24.87;53.41;96659.81;5048929;28;20425;-64
2021/06/23 00:17:32;;;;;;;3.33;3.03;;;;;;;24.90;53.52;96666.53;5050823;28;20420;-64
2021/06/23 00:19:58;;;;;;;3.40;2.53;;;;;;;24.94;53.71;96670.31;5050277;28;20461;-64
2021/06/23 00:22:24;;;;;;;8.03;3.03;;;;;;;24.90;53.96;96671.88;5047974;28;20179;-64
2021/06/23 00:24:49;;;;;;;3.43;3.13;;;;;;;24.76;54.73;96677.69;5050171;28;20236;-64
2021/06/23 00:27:15;;;;;;;3.60;3.30;;;;;;;24.07;57.09;96671.97;5050269;28;20317;-63
2021/06/23 00:29:41;;;;;;;6.33;3.40;;;;;;;23.70;58.15;96669.94;5050551;28;20632;-62
2021/06/23 00:32:15;;;;;;;7.17;3.53;;;;;;;23.39;59.28;96663.41;5051469;28;20187;-64
2021/06/23 00:34:41;;;;;;;4.40;3.63;;;;;;;23.58;58.67;96659.38;5051297;28;20695;-63
2021/06/23 00:37:07;;;;;;;5.47;3.37;;;;;;;23.82;58.47;96663.66;5049080;28;20792;-64
2021/06/23 00:39:33;;;;;;;3.10;2.80;;;;;;;24.19;56.82;96668.34;5010028;28;1175435;-63
2021/06/23 00:41:58;;;;;;;3.57;3.30;;;;;;;24.45;56.05;96666.72;5026668;28;20270;-62
2021/06/23 00:44:24;;;;;;;6.13;3.60;;;;;;;24.35;56.12;96672.78;5052601;28;20186;-63
2021/06/23 00:46:50;;;;;;;4.27;3.00;;;;;;;24.28;56.85;96669.50;5053613;28;20258;-68
2021/06/23 00:49:16;;;;;;;4.37;3.03;;;;;;;24.21;57.12;96668.88;5054667;28;20650;-64
2021/06/23 00:51:42;;;;;;;4.53;3.27;;;;;;;24.33;56.62;96672.22;5052456;28;20202;-62
2021/06/23 00:54:15;;;;;;;4.30;3.37;;;;;;;24.39;56.48;96670.38;5053760;28;20912;-64
2021/06/23 00:56:42;;;;;;;8.83;3.40;;;;;;;24.50;55.71;96665.94;5052006;28;20190;-64
2021/06/23 00:59:09;;;;;;;4.23;3.83;;;;;;;24.37;56.14;96669.88;5053632;28;20440;-64
2021/06/23 01:01:37;;;;;;;5.77;3.77;;;;;;;24.44;56.29;96677.69;5051897;28;20968;-65
2021/06/23 01:04:03;;;;;;;4.90;3.93;;;;;;;24.39;56.60;96678.41;5052499;28;20418;-64
2021/06/23 01:06:30;;;;;;;5.10;3.63;;;;;;;24.32;56.34;96686.66;5053316;28;20424;-62
2021/06/23 01:08:56;;;;;;;8.60;4.43;;;;;;;24.27;57.20;96670.56;5051570;28;20190;-63
2021/06/23 01:11:21;;;;;;;6.37;4.50;;;;;;;24.15;57.51;96673.38;5054681;28;20438;-63
2021/06/23 01:13:47;;;;;;;7.57;4.23;;;;;;;24.04;58.31;96669.00;5049698;28;20179;-63
2021/06/23 01:16:13;;;;;;;7.20;4.53;;;;;;;23.84;58.79;96672.22;5056266;28;20183;-65
2021/06/23 01:18:39;;;;;;;6.83;5.13;;;;;;;23.68;58.95;96669.41;5030724;28;20203;-64
2021/06/23 01:21:06;;;;;;;7.63;4.93;;;;;;;23.49;59.60;96666.22;5051612;28;20211;-65
2021/06/23 01:23:32;;;;;;;5.10;4.70;;;;;;;23.41;60.66;96659.44;5058104;28;20457;-65
2021/06/23 01:25:57;;;;;;;4.17;3.77;;;;;;;23.78;59.10;96653.47;5058115;28;20928;-65
2021/06/23 01:28:23;;;;;;;5.73;5.10;;;;;;;23.91;57.86;96662.16;5052658;28;20182;-65
2021/06/23 01:30:49;;;;;;;5.47;4.40;;;;;;;24.07;57.17;96661.25;5062797;28;20285;-64
2021/06/23 01:33:15;;;;;;;5.43;4.03;;;;;;;23.91;57.59;96656.81;5063592;28;20191;-63
2021/06/23 01:35:44;;;;;;;7.50;4.90;;;;;;;24.11;57.52;96656.25;5060068;28;20795;-63
2021/06/23 01:38:10;;;;;;;4.53;4.13;;;;;;;24.13;57.76;96654.09;5049908;28;20183;-65
2021/06/23 01:40:36;;;;;;;4.47;3.80;;;;;;;24.24;57.07;96660.34;5043723;28;20487;-63
2021/06/23 01:43:01;;;;;;;4.53;3.93;;;;;;;24.44;56.35;96654.38;5047660;28;20187;-62
2021/06/23 01:45:28;;;;;;;9.53;4.17;;;;;;;24.55;55.80;96647.25;5053055;28;20183;-63
2021/06/23 01:47:54;;;;;;;4.30;4.00;;;;;;;24.48;56.25;96633.25;5050251;28;20198;-64
2021/06/23 01:50:23;;;;;;;7.37;4.90;;;;;;;24.59;56.18;96629.59;5053621;28;20515;-67
2021/06/23 01:52:48;;;;;;;4.37;4.03;;;;;;;24.62;55.65;96628.28;5053565;28;20426;-63
2021/06/23 01:55:27;;;;;;;4.40;4.10;;;;;;;24.60;55.58;96622.38;5053630;28;20426;-64
2021/06/23 01:57:58;;;;;;;5.73;3.30;;;;;;;24.59;56.05;96629.59;5053701;28;20186;-64
2021/06/23 02:00:30;;;;;;;7.20;4.53;;;;;;;24.51;56.05;96628.19;5053489;28;20461;-63
2021/06/23 02:02:58;;;;;;;3.20;2.90;;;;;;;24.54;55.83;96627.69;5052488;28;20414;-64
2021/06/23 02:05:43;;;;;;;6.47;3.80;;;;;;;24.54;55.69;96632.25;5044197;28;20449;-64
2021/06/23 02:08:13;;;;;;;5.10;4.50;;;;;;;24.38;56.49;96624.06;5048444;28;20457;-65
2021/06/23 02:11:03;;;;;;;3.73;3.47;;;;;;;24.34;56.57;96628.31;5053339;28;20860;-64
2021/06/23 02:13:28;;;;;;;5.70;4.00;;;;;;;24.40;56.65;96621.13;5037812;28;20445;-65
2021/06/23 02:15:58;;;;;;;3.90;3.40;;;;;;;24.55;56.02;96617.78;5053049;28;20432;-64
2021/06/23 02:18:27;;;;;;;4.87;3.57;;;;;;;24.63;55.16;96625.34;5051956;28;20186;-65
2021/06/23 02:20:56;;;;;;;6.10;4.97;;;;;;;24.46;55.99;96619.31;5051262;28;20820;-63
2021/06/23 02:23:22;;;;;;;5.40;3.60;;;;;;;24.23;56.64;96626.63;5052557;28;20410;-65
2021/06/23 02:25:49;;;;;;;5.23;3.57;;;;;;;24.33;56.02;96624.03;5052211;28;20417;-64
2021/06/23 02:28:15;;;;;;;3.73;3.40;;;;;;;24.41;56.19;96633.47;5052786;28;20754;-64
2021/06/23 02:30:41;;;;;;;4.73;3.37;;;;;;;24.40;55.98;96629.16;5052791;28;20999;-64
2021/06/23 02:33:08;;;;;;;7.37;4.00;;;;;;;24.17;56.20;96622.28;5051459;28;20449;-64
2021/06/23 02:35:34;;;;;;;5.23;4.47;;;;;;;24.15;56.94;96622.53;5045857;28;20207;-65
2021/06/23 02:38:00;;;;;;;3.97;3.57;;;;;;;24.14;56.18;96622.78;5045104;28;20425;-65
2021/06/23 02:40:26;;;;;;;7.73;5.43;;;;;;;24.13;56.64;96621.97;5051132;28;20468;-64
2021/06/23 02:42:52;;;;;;;6.53;4.17;;;;;;;24.06;56.54;96619.53;5052321;28;20501;-64
2021/06/23 02:45:17;;;;;;;5.33;3.57;;;;;;;24.06;57.11;96619.53;5041529;28;20179;-64
2021/06/23 02:47:43;;;;;;;6.47;5.30;;;;;;;23.82;57.51;96620.88;5052611;28;20518;-64
2021/06/23 02:50:09;;;;;;;8.80;3.70;;;;;;;23.83;57.33;96627.81;5052166;28;20563;-65
2021/06/23 02:52:35;;;;;;;3.70;3.40;;;;;;;23.87;57.71;96634.28;5051764;28;20182;-64
2021/06/23 02:55:05;;;;;;;5.67;4.40;;;;;;;23.74;57.84;96628.25;5050489;28;20789;-65
2021/06/23 02:57:33;;;;;;;4.73;3.80;;;;;;;23.82;56.97;96636.91;5052123;28;20447;-65
2021/06/23 03:00:00;;;;;;;5.57;3.30;;;;;;;23.67;57.49;96638.38;5052232;28;20464;-64
2021/06/23 03:02:25;;;;;;;3.43;3.07;;;;;;;23.73;57.70;96640.03;5051108;28;20560;-65
2021/06/23 03:04:51;;;;;;;3.80;3.40;;;;;;;23.42;57.13;96633.50;5050494;28;20500;-64
2021/06/23 03:07:17;;;;;;;2.93;2.67;;;;;;;23.17;59.15;96638.28;5049514;28;20192;-64
2021/06/23 03:09:43;;;;;;;3.47;2.87;;;;;;;23.08;59.17;96645.06;5050718;28;20282;-64
2021/06/23 03:12:13;;;;;;;9.07;3.00;;;;;;;23.28;58.63;96651.78;5051721;28;20429;-65
2021/06/23 03:14:40;;;;;;;4.47;2.80;;;;;;;23.24;58.37;96662.19;5051535;28;20531;-64
2021/06/23 03:17:05;;;;;;;4.60;3.00;;;;;;;23.36;57.46;96661.25;5051476;28;20421;-65
2021/06/23 03:19:32;;;;;;;3.33;2.63;;;;;;;23.46;57.76;96656.81;5051920;28;20457;-64
2021/06/23 03:22:03;;;;;;;3.07;2.27;;;;;;;23.73;56.45;96650.72;5048852;28;20658;-65
2021/06/23 03:24:29;;;;;;;2.90;2.50;;;;;;;23.89;56.28;96653.56;5050136;28;20982;-65
2021/06/23 03:26:54;;;;;;;2.87;2.60;;;;;;;23.93;56.06;96665.41;5051762;28;20418;-64
2021/06/23 03:29:23;;;;;;;5.80;2.00;;;;;;;24.00;56.07;96657.19;5043385;28;20167;-64
2021/06/23 03:31:49;;;;;;;3.30;2.33;;;;;;;24.14;55.35;96657.59;5051966;28;20245;-64
2021/06/23 03:34:15;;;;;;;2.40;2.20;;;;;;;24.07;55.02;96661.25;5051173;28;20414;-65
2021/06/23 03:36:40;;;;;;;2.40;2.20;;;;;;;24.16;54.52;96666.97;5051406;28;20175;-64
2021/06/23 03:39:06;;;;;;;2.90;2.50;;;;;;;24.00;54.96;96670.56;5048174;28;20487;-64
2021/06/23 03:41:31;;;;;;;3.30;2.27;;;;;;;23.60;55.95;96665.28;5049007;28;20202;-65
2021/06/23 03:43:57;;;;;;;2.80;2.60;;;;;;;23.40;56.03;96667.69;5042986;28;20195;-65
2021/06/23 03:46:23;;;;;;;6.40;2.50;;;;;;;23.16;58.12;96659.88;5050729;28;20179;-64
2021/06/23 03:48:48;;;;;;;3.60;2.37;;;;;;;22.85;58.03;96667.47;5051628;28;20293;-64
2021/06/23 03:51:14;;;;;;;2.60;2.40;;;;;;;22.59;59.01;96674.25;5051597;28;20308;-65
2021/06/23 03:53:39;;;;;;;4.87;2.90;;;;;;;22.40;60.49;96674.47;5034274;28;20175;-64
2021/06/23 03:56:05;;;;;;;3.67;3.30;;;;;;;22.27;60.90;96672.13;5048467;28;20197;-65
2021/06/23 03:58:30;;;;;;;8.83;4.60;;;;;;;22.14;62.34;96681.22;5046362;28;20180;-64
2021/06/23 04:00:56;;;;;;;5.20;4.07;;;;;;;21.96;62.70;96684.88;5047105;28;20218;-64
2021/06/23 04:03:22;;;;;;;11.37;3.63;;;;;;;21.99;63.25;96690.53;5048920;28;20741;-64
2021/06/23 04:05:47;;;;;;;5.70;5.20;;;;;;;22.15;63.36;96683.66;5043354;28;20175;-64
2021/06/23 04:08:13;;;;;;;4.23;3.90;;;;;;;22.65;61.39;96692.00;5050465;28;20266;-64
2021/06/23 04:10:38;;;;;;;5.60;4.60;;;;;;;22.83;60.11;96691.75;5050989;28;20194;-64
2021/06/23 04:13:04;;;;;;;5.80;4.00;;;;;;;23.02;59.65;96689.63;5050737;28;20210;-64
2021/06/23 04:15:30;;;;;;;9.97;3.10;;;;;;;23.43;58.41;96686.75;5050371;28;20258;-64
2021/06/23 04:17:55;;;;;;;3.53;3.23;;;;;;;23.60;57.68;96688.53;5050346;28;20672;-64
2021/06/23 04:20:21;;;;;;;8.13;4.37;;;;;;;23.60;57.18;96692.03;5049114;28;20325;-63
2021/06/23 04:22:46;;;;;;;6.87;4.00;;;;;;;23.39;58.61;96685.63;5049095;28;20185;-66
2021/06/23 04:25:12;;;;;;;5.00;3.60;;;;;;;23.30;59.12;96687.09;5036516;28;20265;-64
2021/06/23 04:27:38;;;;;;;6.27;4.60;;;;;;;23.21;58.95;96683.22;5050710;28;20187;-65
2021/06/23 04:30:07;;;;;;;5.63;3.93;;;;;;;23.17;59.19;96682.88;5050095;28;20433;-64
2021/06/23 04:32:32;;;;;;;6.97;4.37;;;;;;;22.97;59.29;96691.41;5048192;28;20448;-64
2021/06/23 04:35:01;;;;;;;9.57;4.33;;;;;;;23.17;58.79;96693.56;5042420;28;20429;-64
2021/06/23 04:37:26;;;;;;;6.40;3.50;;;;;;;22.98;60.23;96698.38;5041046;28;20739;-67
2021/06/23 04:39:52;;;;;;;5.77;3.20;;;;;;;23.23;58.98;96697.97;5050148;28;20469;-64
2021/06/23 04:42:18;;;;;;;9.33;3.10;;;;;;;23.49;58.11;96702.84;5050461;28;20182;-64
2021/06/23 04:44:43;;;;;;;3.63;2.67;;;;;;;23.85;57.29;96700.59;5050056;28;20672;-64
2021/06/23 04:47:09;;;;;;;3.93;3.10;;;;;;;23.94;55.63;96693.78;5049966;28;20317;-62
2021/06/23 04:49:34;;;;;;;4.70;2.83;;;;;;;24.01;55.37;96709.63;5049094;28;20175;-64
2021/06/23 04:52:00;;;;;;;12.27;3.47;;;;;;;24.14;58.76;96703.09;5050117;28;20174;-64
2021/06/23 04:54:25;;;;;;;16.80;4.27;;;;;;;24.20;59.16;96707.41;5035677;28;20180;-65
2021/06/23 04:56:51;;;;;;;14.23;3.50;;;;;;;24.46;61.46;96707.66;5050727;28;20206;-63
2021/06/23 04:59:17;;;;;;;33.73;6.90;;;;;;;24.75;63.86;96702.88;5049973;28;20637;-63
2021/06/23 05:01:42;;;;;;;12.43;5.03;;;;;;;24.54;56.69;96712.59;5050582;28;20649;-63
2021/06/23 05:04:08;;;;;;;18.70;2.90;;;;;;;24.42;58.73;96701.22;5049841;28;20198;-63
2021/06/23 05:06:33;;;;;;;4.83;1.80;;;;;;;24.10;54.42;96696.63;5050563;28;20175;-64
2021/06/23 05:08:59;;;;;;;7.43;2.37;;;;;;;24.13;58.14;96704.16;5048832;28;20183;-63
2021/06/23 05:11:25;;;;;;;5.13;1.70;;;;;;;24.23;54.06;96706.94;5034362;28;20198;-64
2021/06/23 05:13:51;;;;;;;10.83;1.73;;;;;;;24.30;55.40;96704.03;5045254;28;20207;-64
2021/06/23 05:16:16;;;;;;;5.97;1.33;;;;;;;23.95;52.15;96706.06;5050597;28;20432;-64
2021/06/23 05:18:42;;;;;;;5.30;1.80;;;;;;;24.13;53.02;96707.63;5052875;28;20179;-64
2021/06/23 05:21:08;;;;;;;3.20;1.40;;;;;;;24.30;53.21;96704.88;5051127;28;20218;-65
2021/06/23 05:23:33;;;;;;;3.00;1.33;;;;;;;24.57;53.60;96704.03;5050159;28;20176;-65
2021/06/23 05:25:59;;;;;;;2.97;1.67;;;;;;;24.75;51.49;96707.41;5050855;28;20186;-64
2021/06/23 05:28:24;;;;;;;6.17;1.50;;;;;;;24.58;50.95;96707.50;5038050;28;20642;-65
2021/06/23 05:30:50;;;;;;;2.50;1.37;;;;;;;24.44;51.86;96710.63;5052950;28;20194;-64
2021/06/23 05:33:15;;;;;;;8.23;1.57;;;;;;;24.53;49.82;96710.97;5054383;28;20248;-63
2021/06/23 05:35:41;;;;;;;3.60;1.63;;;;;;;24.33;51.73;96723.09;5059165;28;20309;-63
2021/06/23 05:38:07;;;;;;;5.33;1.90;;;;;;;24.35;52.65;96725.53;5063316;28;20201;-64
2021/06/23 05:40:32;;;;;;;2.17;1.40;;;;;;;24.26;51.18;96722.50;5049365;28;20214;-66
2021/06/23 05:42:58;;;;;;;1.50;1.37;;;;;;;24.44;50.72;96726.69;5055147;28;20179;-66
2021/06/23 05:45:24;;;;;;;5.80;2.57;;;;;;;24.20;50.64;96729.66;5052675;28;20179;-64
2021/06/23 05:47:49;;;;;;;2.20;1.40;;;;;;;24.73;50.91;96728.28;5054783;28;20646;-65
2021/06/23 05:50:15;;;;;;;2.03;1.70;;;;;;;24.87;50.42;96732.16;5060250;28;20282;-66
2021/06/23 05:52:40;;;;;;;16.60;8.30;;;;;;;24.72;50.38;96724.00;5057338;28;20290;-64
2021/06/23 05:55:06;;;;;;;8.00;2.23;;;;;;;25.26;49.73;96734.59;5037310;28;20304;-64
2021/06/23 05:57:32;;;;;;;30.70;15.13;;;;;;;25.15;49.01;96738.25;5054879;28;20553;-65
2021/06/23 05:59:58;;;;;;;1.60;1.50;;;;;;;25.33;49.50;96736.25;5041897;28;20463;-65
2021/06/23 06:02:23;;;;;;;71.17;25.17;;;;;;;25.43;49.24;96736.34;5047186;28;20178;-65
2021/06/23 06:04:49;;;;;;;10.90;4.47;;;;;;;25.15;49.49;96743.63;5053554;28;20179;-64
2021/06/23 06:07:14;;;;;;;10.23;3.90;;;;;;;25.29;49.00;96747.47;5036340;28;20190;-65
2021/06/23 06:09:41;;;;;;;7.13;3.80;;;;;;;24.97;49.58;96751.00;5053648;28;20179;-65
2021/06/23 06:12:10;;;;;;;6.33;2.90;;;;;;;25.18;49.10;96753.84;5020324;28;20256;-63
2021/06/23 06:14:35;;;;;;;2.70;1.40;;;;;;;25.85;48.12;96751.53;5052998;28;20425;-64
2021/06/23 06:17:01;;;;;;;2.83;1.93;;;;;;;25.84;46.92;96749.94;5053377;28;20421;-64
2021/06/23 06:19:27;;;;;;;3.33;1.60;;;;;;;25.68;48.63;96754.41;5053507;28;20552;-63
2021/06/23 06:21:54;;;;;;;5.17;3.10;;;;;;;25.66;48.08;96763.81;5050773;28;20174;-61
2021/06/23 06:24:20;;;;;;;11.80;6.60;;;;;;;26.05;47.54;96753.50;5051541;28;20229;-63
2021/06/23 06:26:45;;;;;;;3.90;1.57;;;;;;;26.24;46.50;96760.28;5051719;28;20428;-64
2021/06/23 06:29:11;;;;;;;6.73;2.83;;;;;;;26.13;47.45;96757.59;5038128;28;20204;-65
2021/06/23 06:31:36;;;;;;;15.80;6.63;;;;;;;25.95;47.35;96760.72;5034718;28;20229;-64
2021/06/23 06:34:02;;;;;;;3.47;2.47;;;;;;;26.13;47.84;96760.28;5045288;28;20718;-64
2021/06/23 06:36:28;;;;;;;4.87;1.63;;;;;;;26.58;46.98;96763.31;5038544;28;20183;-64
2021/06/23 06:38:53;;;;;;;3.10;1.40;;;;;;;26.52;46.68;96762.50;5045824;28;20239;-65
2021/06/23 06:41:19;;;;;;;1.40;1.30;;;;;;;26.69;47.02;96756.09;5052942;28;20251;-65
2021/06/23 06:43:44;;;;;;;7.30;3.60;;;;;;;26.13;48.34;96757.59;5052629;28;20172;-65
2021/06/23 06:46:10;;;;;;;3.40;2.00;;;;;;;26.90;46.64;96761.50;5050258;28;20179;-65
2021/06/23 06:48:37;;;;;;;9.20;5.67;;;;;;;26.14;48.19;96763.78;5053187;28;20167;-64
2021/06/23 06:51:02;;;;;;;2.90;1.60;;;;;;;26.91;46.42;96755.84;5051862;28;20194;-65
2021/06/23 06:53:29;;;;;;;2.20;2.00;;;;;;;26.94;46.34;96755.31;5052743;28;20429;-63
2021/06/23 06:55:55;;;;;;;1.50;1.30;;;;;;;26.97;45.80;96754.78;5052461;28;20217;-63
2021/06/23 06:58:20;;;;;;;4.87;2.50;;;;;;;27.11;46.03;96760.41;5052458;28;20475;-63
2021/06/23 07:00:46;;;;;;;7.80;1.73;;;;;;;27.34;44.88;96752.88;5052544;28;20631;-63
2021/06/23 07:03:11;;;;;;;3.47;1.50;;;;;;;27.46;45.35;96760.66;5050263;28;20180;-68
2021/06/23 07:05:37;;;;;;;4.53;1.50;;;;;;;27.81;44.21;96763.53;5045062;28;20181;-64
2021/06/23 07:08:03;;;;;;;2.67;1.87;;;;;;;27.89;43.36;96753.00;5046514;28;20185;-64
2021/06/23 07:10:28;;;;;;;5.90;1.83;;;;;;;26.48;46.12;96758.75;5045610;28;20202;-65
2021/06/23 07:12:54;;;;;;;7.43;2.07;;;;;;;26.34;46.82;96768.38;5052120;28;20430;-65
2021/06/23 07:15:20;;;;;;;5.90;3.00;;;;;;;26.92;45.59;96768.22;5053499;28;20194;-64
2021/06/23 07:17:46;;;;;;;2.40;2.20;;;;;;;26.16;47.21;96770.50;5055599;28;20181;-63
2021/06/23 07:20:12;;;;;;;2.13;1.80;;;;;;;27.19;44.45;96771.72;5054985;28;20203;-63
2021/06/23 07:22:38;;;;;;;2.60;1.67;;;;;;;27.42;44.60;96765.75;5050708;28;20421;-64
2021/06/23 07:25:05;;;;;;;2.10;1.50;;;;;;;27.78;43.86;96769.47;5053292;28;20430;-63
2021/06/23 07:27:31;;;;;;;5.63;3.03;;;;;;;27.54;44.00;96764.69;5034372;28;20179;-64
2021/06/23 07:29:56;;;;;;;3.93;2.07;;;;;;;27.66;44.51;96778.66;5052780;28;20430;-63
2021/06/23 07:37:15;;;;;;;6.00;1.77;;;;;;;28.50;43.32;96777.22;5024354;28;20971;-65
2021/06/23 07:39:42;;;;;;;3.70;1.83;;;;;;;28.75;42.64;96779.00;5022752;28;20788;-64
2021/06/23 07:42:08;;;;;;;5.87;4.00;;;;;;;28.91;41.07;96773.47;5027582;28;20188;-64
2021/06/23 07:47:11;;;;;;;7.73;4.70;;;;;;;27.64;44.44;96772.72;5032171;28;20411;-64
2021/06/23 07:49:39;;;;;;;2.80;1.70;;;;;;;28.17;43.42;96774.97;5029422;28;20509;-64
2021/06/23 07:52:52;;;;;;;13.70;7.37;;;;;;;27.94;44.07;96770.19;5036524;28;21091;-64
2021/06/23 07:55:05;;;;;;;2.43;2.23;;;;;;;28.16;44.32;96773.38;5050658;28;20471;-64
2021/06/23 08:09:15;;;;;;;3.23;1.90;;;;;;;29.11;40.67;96786.00;5053223;28;20432;-64
2021/06/23 08:11:45;;;;;;;3.17;2.30;;;;;;;28.71;42.06;96782.50;5053356;28;20520;-64
2021/06/23 08:14:10;;;;;;;2.27;1.37;;;;;;;28.27;43.07;96787.59;5051004;28;20524;-64
2021/06/23 08:16:37;;;;;;;2.57;1.40;;;;;;;28.91;41.73;96771.59;5051478;28;20508;-65
2021/06/23 08:19:04;;;;;;;2.43;1.80;;;;;;;28.47;42.49;96777.81;5050465;28;20266;-65
2021/06/23 08:21:29;;;;;;;1.97;1.57;;;;;;;29.15;40.95;96780.84;5052094;28;20492;-63
2021/06/23 08:23:55;;;;;;;2.83;2.47;;;;;;;28.51;43.84;96773.44;5043759;28;20429;-65
2021/06/23 08:26:21;;;;;;;4.03;2.83;;;;;;;28.29;44.44;96782.75;5049772;28;20233;-64
2021/06/23 08:28:46;;;;;;;3.30;2.07;;;;;;;28.05;44.69;96777.97;5051282;28;20187;-64
2021/06/23 08:31:12;;;;;;;4.10;2.57;;;;;;;27.86;45.42;96769.69;5034203;28;20196;-64
2021/06/23 08:33:38;;;;;;;2.97;2.40;;;;;;;27.68;45.98;96768.41;5052212;28;20183;-63
2021/06/23 08:36:04;;;;;;;2.30;2.10;;;;;;;27.31;46.30;96774.94;5020272;28;20219;-65
2021/06/23 08:38:30;;;;;;;2.70;2.13;;;;;;;27.14;45.39;96784.06;5050732;28;20183;-64
2021/06/23 08:40:56;;;;;;;2.93;2.10;;;;;;;26.34;47.41;96774.56;5043964;28;20524;-63
2021/06/23 08:43:22;;;;;;;2.00;1.80;;;;;;;26.41;47.28;96774.31;5041091;28;20190;-67
2021/06/23 08:45:47;;;;;;;3.03;2.10;;;;;;;26.20;48.28;96765.38;5050986;28;20186;-67
2021/06/23 08:48:13;;;;;;;2.80;2.13;;;;;;;25.97;49.35;96758.56;5049577;28;20421;-68
2021/06/23 08:50:39;;;;;;;3.27;2.20;;;;;;;25.91;49.49;96763.94;5033651;28;20194;-67
2021/06/23 08:53:05;;;;;;;4.90;2.43;;;;;;;25.61;50.64;96773.44;5055264;28;20352;-69
2021/06/23 08:55:31;;;;;;;6.20;2.00;;;;;;;26.33;48.97;96766.78;5053263;28;20821;-69
2021/06/23 08:57:58;;;;;;;3.20;2.50;;;;;;;26.36;48.35;96761.69;5055452;28;20181;-69
2021/06/23 09:00:24;;;;;;;2.80;2.60;;;;;;;26.35;47.41;96764.63;5053367;28;20207;-70
2021/06/23 09:02:50;;;;;;;2.40;2.20;;;;;;;25.88;49.00;96761.75;5054284;28;20421;-69
2021/06/23 09:05:17;;;;;;;2.23;2.03;;;;;;;25.62;49.33;96774.25;5053627;28;20432;-69
2021/06/23 09:07:53;;;;;;;2.73;2.33;;;;;;;26.18;48.78;96759.47;5042910;28;20187;-69
2021/06/23 09:10:18;;;;;;;2.37;1.93;;;;;;;26.22;47.45;96760.56;5055245;28;20441;-68
2021/06/23 09:13:04;;;;;;;22.37;3.70;;;;;;;24.84;51.41;96767.50;5054945;28;21099;-68
2021/06/23 09:16:00;;;;;;;9.40;3.23;;;;;;;25.30;51.15;96757.13;5054403;28;20178;-69
2021/06/23 09:18:28;;;;;;;16.37;3.20;;;;;;;24.94;52.27;96764.94;5051509;28;20537;-68
2021/06/23 09:21:11;;;;;;;5.07;2.60;;;;;;;25.06;51.53;96756.69;5051010;28;20487;-68
2021/06/23 09:23:45;;;;;;;7.43;2.83;;;;;;;24.95;52.42;96763.84;5035995;28;20418;-69
2021/06/23 09:26:27;;;;;;;3.30;2.77;;;;;;;24.91;52.68;96762.75;5050264;28;20433;-69
2021/06/23 09:29:17;;;;;;;10.20;3.37;;;;;;;24.84;52.59;96762.13;5043988;28;20832;-68
2021/06/23 09:32:00;;;;;;;8.17;2.97;;;;;;;24.53;53.75;96759.16;5052438;28;20422;-69
2021/06/23 09:34:47;;;;;;;5.70;2.67;;;;;;;24.76;53.49;96755.38;5039428;28;20417;-68
2021/06/23 09:37:30;;;;;;;4.70;3.20;;;;;;;24.27;54.21;96758.91;5036462;28;20430;-67
2021/06/23 09:40:12;;;;;;;3.97;2.73;;;;;;;24.60;54.04;96765.13;5053336;28;21018;-68
2021/06/23 09:42:49;;;;;;;4.93;3.63;;;;;;;24.81;53.47;96766.16;5036570;28;20436;-67
2021/06/23 09:45:18;;;;;;;3.67;3.33;;;;;;;24.56;53.57;96768.56;5054093;28;20417;-68
2021/06/23 09:47:48;;;;;;;6.47;3.97;;;;;;;24.78;52.79;96765.84;5060450;28;20464;-68
2021/06/23 09:50:21;;;;;;;6.00;3.10;;;;;;;24.67;53.00;96765.75;5042994;28;20453;-66
2021/06/23 09:52:58;;;;;;;8.43;3.17;;;;;;;24.90;52.73;96761.13;5030408;28;20426;-69
2021/06/23 09:55:38;;;;;;;4.07;3.67;;;;;;;25.00;52.36;96757.72;5047393;28;20495;-69
2021/06/23 09:58:16;;;;;;;5.10;3.27;;;;;;;25.01;51.93;96772.75;5047383;28;20426;-69
2021/06/23 10:01:04;;;;;;;4.60;3.53;;;;;;;25.51;51.30;96761.84;5053920;28;20499;-66
2021/06/23 10:03:37;;;;;;;3.40;3.10;;;;;;;24.96;53.11;96762.78;5039596;28;20413;-70
2021/06/23 10:06:23;;;;;;;9.97;3.30;;;;;;;24.72;53.32;96762.31;5039979;28;20429;-69
2021/06/23 10:08:49;;;;;;;3.90;2.90;;;;;;;24.71;53.21;96770.59;5053765;28;20501;-68
2021/06/23 10:11:28;;;;;;;3.50;3.20;;;;;;;24.52;53.76;96760.22;5046166;28;20442;-68
2021/06/23 10:13:53;;;;;;;6.10;3.10;;;;;;;25.12;52.42;96768.25;5053563;28;20421;-67
2021/06/23 10:16:21;;;;;;;6.53;2.77;;;;;;;25.06;51.68;96762.06;5053972;28;21159;-69
2021/06/23 10:18:47;;;;;;;4.20;2.50;;;;;;;25.74;50.48;96761.44;5052542;28;20549;-67
2021/06/23 10:21:13;;;;;;;5.37;2.30;;;;;;;26.46;47.86;96746.66;5049571;28;20473;-70
2021/06/23 10:23:40;;;;;;;4.00;2.40;;;;;;;26.86;46.05;96753.19;5053950;28;20179;-68
2021/06/23 10:26:06;;;;;;;2.30;2.10;;;;;;;27.04;45.44;96733.00;5051350;28;20189;-68
2021/06/23 10:28:32;;;;;;;2.33;2.17;;;;;;;26.65;46.42;96736.19;5038714;28;20504;-68
2021/06/23 10:30:58;;;;;;;3.40;2.20;;;;;;;27.41;45.10;96739.94;5051295;28;20195;-67
2021/06/23 10:33:25;;;;;;;2.27;1.63;;;;;;;28.62;42.59;96733.78;5051780;28;20424;-68
2021/06/23 10:35:51;;;;;;;3.77;2.10;;;;;;;28.02;42.30;96730.06;5041126;28;20439;-67
2021/06/23 10:38:18;;;;;;;2.00;1.80;;;;;;;28.95;38.99;96729.50;5050141;28;21009;-69
2021/06/23 10:40:44;;;;;;;2.53;1.70;;;;;;;27.57;40.87;96729.16;5052940;28;20211;-68
2021/06/23 10:43:14;;;;;;;2.17;1.97;;;;;;;27.09;42.35;96724.91;5051266;28;20447;-68
2021/06/23 10:45:45;;;;;;;2.00;1.80;;;;;;;28.30;39.90;96724.28;5052404;28;20190;-67
2021/06/23 10:48:11;;;;;;;2.23;1.40;;;;;;;28.55;39.72;96727.88;5051013;28;20753;-67
2021/06/23 10:50:37;;;;;;;4.57;1.70;;;;;;;28.57;39.75;96723.84;5033868;28;20441;-68
2021/06/23 10:53:29;;;;;;;1.40;1.30;;;;;;;29.12;39.43;96728.25;5052743;28;20425;-68
2021/06/23 10:55:56;;;;;;;1.60;1.30;;;;;;;30.12;36.54;96724.22;5052966;28;20528;-69
2021/06/23 10:58:27;;;;;;;1.43;0.97;;;;;;;30.70;32.23;96717.72;5052718;28;20480;-69
2021/06/23 11:01:05;;;;;;;1.00;0.80;;;;;;;30.78;31.72;96717.03;5052580;28;20499;-69
2021/06/23 11:03:31;;;;;;;1.10;0.80;;;;;;;30.83;30.82;96718.84;5051661;28;20798;-68
2021/06/23 11:05:57;;;;;;;1.00;0.67;;;;;;;31.40;29.70;96718.69;5039378;28;20419;-68
2021/06/23 11:08:29;;;;;;;0.97;0.60;;;;;;;31.56;29.49;96726.50;5066604;28;20179;-68
2021/06/23 11:10:57;;;;;;;1.00;0.80;;;;;;;30.79;30.26;96726.75;5051832;28;20206;-66
2021/06/23 11:13:28;;;;;;;1.00;0.70;;;;;;;30.97;29.53;96732.44;5051782;28;20422;-67
2021/06/23 11:15:54;;;;;;;3.93;1.43;;;;;;;30.98;29.01;96736.75;5053028;28;20476;-65
2021/06/23 11:18:44;;;;;;;1.40;0.90;;;;;;;31.37;29.04;96738.25;5052142;28;20422;-68
2021/06/23 11:21:18;;;;;;;0.90;0.70;;;;;;;30.10;29.14;96732.63;5040204;28;20477;-67
2021/06/23 11:24:10;;;;;;;1.70;0.80;;;;;;;30.98;28.60;96722.41;5051590;28;20779;-68
2021/06/23 11:26:39;;;;;;;1.57;0.70;;;;;;;31.31;28.10;96719.69;5050667;28;20440;-67
2021/06/23 11:29:10;;;;;;;6.57;0.70;;;;;;;31.09;28.69;96716.53;5051788;28;20453;-69
2021/06/23 11:31:41;;;;;;;3.60;0.73;;;;;;;31.53;27.87;96718.97;5052019;28;20440;-67
2021/06/23 11:34:07;;;;;;;1.40;0.60;;;;;;;31.93;27.50;96722.00;5051806;28;20792;-68
2021/06/23 11:36:32;;;;;;;0.93;0.60;;;;;;;31.41;27.56;96714.88;5038751;28;20410;-67
2021/06/23 11:38:58;;;;;;;0.90;0.67;;;;;;;32.01;27.95;96712.38;5043518;28;20187;-69
2021/06/23 11:41:25;;;;;;;1.10;0.70;;;;;;;31.72;28.53;96710.78;5052248;28;20207;-68
2021/06/23 11:43:50;;;;;;;2.13;1.43;;;;;;;31.41;29.13;96709.47;5041357;28;20436;-69
2021/06/23 11:46:17;;;;;;;1.00;0.70;;;;;;;30.73;29.21;96711.72;5051535;28;20426;-68
2021/06/23 11:48:43;;;;;;;0.90;0.60;;;;;;;31.39;28.51;96703.53;5050723;28;20350;-68
2021/06/23 11:51:11;;;;;;;0.90;0.60;;;;;;;31.56;27.68;96708.38;5051560;28;20445;-70
2021/06/23 11:53:37;;;;;;;0.93;0.60;;;;;;;31.44;26.62;96707.25;5041504;28;20837;-68